Terminal Aerodrome Forecast
Issued by NWS

Home | Current Version | Previous Version | Text Only | Print | Product List | Glossary On
Versions: 1 2 3 4 5 6 7 8 9 10 11 12 13 14 15 16 17 18
052
FTUS43 KAPX 300617 AAA
TAFMBL
TAF AMD
KMBL 300617Z 3006/3106 10007KT P6SM -RASN OVC060
     FM301100 09007KT P6SM -RA OVC060
     FM301400 09012G21KT 5SM -RA OVC025
     FM302300 07012G21KT 1 1/2SM -RA BR OVC015
     FM310000 07011G20KT 3SM -RA BR OVC015=

USA.gov is the U.S. government's official web portal to all federal, state and local government web resources and services.